Fascination — C6FM9 — position and weather

sailwx.info

Track history (hours):
 
Tides and Currents Weather Stations Pressure Air Temp Water Temp Dewpoint Dewpoint Depression Visibility Wind Speed Wind Dir Waves Ship Positions

Fascination

Operator: Carnival Cruise Lines

Last reported at 2015-Jul-04 00:19 UTC. Time now 2015-Jul-06 17:49 UTC.
Position N 29°43' W 080°23'.

Type: Ship. MMSI: 309682000.

Date/timePositionNaut miles runAvg speedWind from/ knotsBaromVisibWave heightAir tempDewpointWater temp
2015-Jul-04 00:19N 29°43' W 080°23'135 7.1
2015-Jul-03 05:18N 27°34' W 079°36'8 9.9
2015-Jul-03 04:32N 27°27' W 079°34'21 9.9
2015-Jul-03 02:27N 27°07' W 079°28'1612.1
2015-Jul-03 01:09N 26°52' W 079°23'65 3.8
2015-Jul-02 08:04N 26°12' W 078°26'911.2
2015-Jul-02 07:16N 26°10' W 078°17'4110.1
2015-Jul-02 03:11N 25°51' W 077°36'43 1.8
2015-Jul-01 03:03N 26°09' W 078°19'5 9.7
2015-Jul-01 02:33N 26°10' W 078°24'1111.0
2015-Jul-01 01:31N 26°13' W 078°37'4611.5
2015-Jun-30 21:32N 26°41' W 079°18'2210.2
2015-Jun-30 19:23N 26°60' W 079°30'9 9.9
2015-Jun-30 18:29N 27°07' W 079°35'9 9.4
2015-Jun-30 17:33N 27°15' W 079°40'  
2015-Jun-28 10:33N 26°42' W 079°21'2013.8
2015-Jun-28 09:06N 26°24' W 079°11'912.3
2015-Jun-28 08:21N 26°19' W 079°02'1012.2
2015-Jun-28 07:33N 26°17' W 078°51'1312.4
2015-Jun-28 06:29N 26°13' W 078°37'4912.5
2015-Jun-28 02:33N 25°58' W 077°45'  
2015-Jun-24 04:23N 26°02' W 077°49'1010.1
2015-Jun-24 03:22N 25°56' W 077°40'  
Track history (hours):
 
Tides and Currents Weather Stations Pressure Air Temp Water Temp Dewpoint Dewpoint Depression Visibility Wind Speed Wind Dir Waves Ship Positions

Fascination

Operator: Carnival Cruise Lines

Last reported at 2015-Jul-04 00:19 UTC. Time now 2015-Jul-06 17:49 UTC.
Position N 29°43' W 080°23'.

Type: Ship. MMSI: 309682000.

Date/timePositionNaut miles runAvg speedWind from/ knotsBaromVisibWave heightAir tempDewpointWater temp
2015-Jul-04 00:19N 29°43' W 080°23'135 7.1
2015-Jul-03 05:18N 27°34' W 079°36'8 9.9
2015-Jul-03 04:32N 27°27' W 079°34'21 9.9
2015-Jul-03 02:27N 27°07' W 079°28'1612.1
2015-Jul-03 01:09N 26°52' W 079°23'65 3.8
2015-Jul-02 08:04N 26°12' W 078°26'911.2
2015-Jul-02 07:16N 26°10' W 078°17'4110.1
2015-Jul-02 03:11N 25°51' W 077°36'43 1.8
2015-Jul-01 03:03N 26°09' W 078°19'5 9.7
2015-Jul-01 02:33N 26°10' W 078°24'1111.0
2015-Jul-01 01:31N 26°13' W 078°37'4611.5
2015-Jun-30 21:32N 26°41' W 079°18'2210.2
2015-Jun-30 19:23N 26°60' W 079°30'9 9.9
2015-Jun-30 18:29N 27°07' W 079°35'9 9.4
2015-Jun-30 17:33N 27°15' W 079°40'  
2015-Jun-28 10:33N 26°42' W 079°21'2013.8
2015-Jun-28 09:06N 26°24' W 079°11'912.3
2015-Jun-28 08:21N 26°19' W 079°02'1012.2
2015-Jun-28 07:33N 26°17' W 078°51'1312.4
2015-Jun-28 06:29N 26°13' W 078°37'4912.5
2015-Jun-28 02:33N 25°58' W 077°45'  
2015-Jun-24 04:23N 26°02' W 077°49'1010.1
2015-Jun-24 03:22N 25°56' W 077°40'  

Dump ship's entire track history